sensor_id;sensor_type;location;lat;lon;timestamp;temperature;humidity
4520;DHT22;2272;49.226;8.108;2022-07-10T00:00:17;16.80;99.90
4520;DHT22;2272;49.226;8.108;2022-07-10T00:02:46;16.80;99.90
4520;DHT22;2272;49.226;8.108;2022-07-10T00:05:14;16.70;99.90
4520;DHT22;2272;49.226;8.108;2022-07-10T00:07:41;16.70;99.90
4520;DHT22;2272;49.226;8.108;2022-07-10T00:10:08;16.60;99.90
4520;DHT22;2272;49.226;8.108;2022-07-10T00:12:35;16.50;99.90
4520;DHT22;2272;49.226;8.108;2022-07-10T00:15:02;16.40;99.90
4520;DHT22;2272;49.226;8.108;2022-07-10T00:17:29;16.40;99.90
4520;DHT22;2272;49.226;8.108;2022-07-10T00:19:55;16.40;99.90
4520;DHT22;2272;49.226;8.108;2022-07-10T00:22:23;16.40;99.90
4520;DHT22;2272;49.226;8.108;2022-07-10T00:24:50;16.30;99.90
4520;DHT22;2272;49.226;8.108;2022-07-10T00:27:17;16.30;99.90
4520;DHT22;2272;49.226;8.108;2022-07-10T00:29:44;16.20;99.90
4520;DHT22;2272;49.226;8.108;2022-07-10T00:32:11;16.10;99.90
4520;DHT22;2272;49.226;8.108;2022-07-10T00:34:37;16.10;99.90
4520;DHT22;2272;49.226;8.108;2022-07-10T00:37:04;16.10;99.90
4520;DHT22;2272;49.226;8.108;2022-07-10T00:39:32;16.10;99.90
4520;DHT22;2272;49.226;8.108;2022-07-10T00:42:06;16.10;99.90
4520;DHT22;2272;49.226;8.108;2022-07-10T00:44:33;16.10;99.90
4520;DHT22;2272;49.226;8.108;2022-07-10T00:47:00;16.10;99.90
4520;DHT22;2272;49.226;8.108;2022-07-10T00:49:27;16.10;99.90
4520;DHT22;2272;49.226;8.108;2022-07-10T00:51:54;16.00;99.90
4520;DHT22;2272;49.226;8.108;2022-07-10T00:54:21;16.00;99.90
4520;DHT22;2272;49.226;8.108;2022-07-10T00:56:49;16.00;99.90
4520;DHT22;2272;49.226;8.108;2022-07-10T00:59:16;15.90;99.90
4520;DHT22;2272;49.226;8.108;2022-07-10T01:01:43;15.90;99.90
4520;DHT22;2272;49.226;8.108;2022-07-10T01:04:10;15.80;99.90
4520;DHT22;2272;49.226;8.108;2022-07-10T01:06:37;15.70;99.90
4520;DHT22;2272;49.226;8.108;2022-07-10T01:09:04;15.70;99.90
4520;DHT22;2272;49.226;8.108;2022-07-10T01:11:32;15.60;99.90
4520;DHT22;2272;49.226;8.108;2022-07-10T01:14:01;15.50;99.90
4520;DHT22;2272;49.226;8.108;2022-07-10T01:16:28;15.50;99.90
4520;DHT22;2272;49.226;8.108;2022-07-10T01:18:55;15.50;99.90
4520;DHT22;2272;49.226;8.108;2022-07-10T01:21:26;15.60;99.90
4520;DHT22;2272;49.226;8.108;2022-07-10T01:23:54;15.60;99.90
4520;DHT22;2272;49.226;8.108;2022-07-10T01:26:21;15.60;99.90
4520;DHT22;2272;49.226;8.108;2022-07-10T01:28:49;15.60;99.90
4520;DHT22;2272;49.226;8.108;2022-07-10T01:31:17;15.50;99.90
4520;DHT22;2272;49.226;8.108;2022-07-10T01:33:44;15.50;99.90
4520;DHT22;2272;49.226;8.108;2022-07-10T01:36:11;15.50;99.90
4520;DHT22;2272;49.226;8.108;2022-07-10T01:38:40;15.40;99.90
4520;DHT22;2272;49.226;8.108;2022-07-10T01:41:07;15.40;99.90
4520;DHT22;2272;49.226;8.108;2022-07-10T01:43:34;15.30;99.90
4520;DHT22;2272;49.226;8.108;2022-07-10T01:46:02;15.30;99.90
4520;DHT22;2272;49.226;8.108;2022-07-10T01:48:29;15.20;99.90
4520;DHT22;2272;49.226;8.108;2022-07-10T01:50:56;15.20;99.90
4520;DHT22;2272;49.226;8.108;2022-07-10T01:53:23;15.10;99.90
4520;DHT22;2272;49.226;8.108;2022-07-10T01:55:51;15.10;99.90
4520;DHT22;2272;49.226;8.108;2022-07-10T01:58:18;15.00;99.90
4520;DHT22;2272;49.226;8.108;2022-07-10T02:00:45;15.00;99.90
4520;DHT22;2272;49.226;8.108;2022-07-10T02:03:11;15.00;99.90
4520;DHT22;2272;49.226;8.108;2022-07-10T02:05:55;15.00;99.90
4520;DHT22;2272;49.226;8.108;2022-07-10T02:08:22;15.00;99.90
4520;DHT22;2272;49.226;8.108;2022-07-10T02:10:50;14.90;99.90
4520;DHT22;2272;49.226;8.108;2022-07-10T02:13:17;14.90;99.90
4520;DHT22;2272;49.226;8.108;2022-07-10T02:15:46;14.80;99.90
4520;DHT22;2272;49.226;8.108;2022-07-10T02:18:13;14.80;99.90
4520;DHT22;2272;49.226;8.108;2022-07-10T02:20:40;14.80;99.90
4520;DHT22;2272;49.226;8.108;2022-07-10T02:23:07;14.80;99.90
4520;DHT22;2272;49.226;8.108;2022-07-10T02:25:34;14.70;99.90
4520;DHT22;2272;49.226;8.108;2022-07-10T02:28:02;14.60;99.90
4520;DHT22;2272;49.226;8.108;2022-07-10T02:30:29;14.60;99.90
4520;DHT22;2272;49.226;8.108;2022-07-10T02:32:56;14.60;99.90
4520;DHT22;2272;49.226;8.108;2022-07-10T02:35:22;14.60;99.90
4520;DHT22;2272;49.226;8.108;2022-07-10T02:37:49;14.50;99.90
4520;DHT22;2272;49.226;8.108;2022-07-10T02:40:16;14.50;99.90
4520;DHT22;2272;49.226;8.108;2022-07-10T02:42:42;14.40;99.90
4520;DHT22;2272;49.226;8.108;2022-07-10T02:45:11;14.40;99.90
4520;DHT22;2272;49.226;8.108;2022-07-10T02:47:37;14.40;99.90
4520;DHT22;2272;49.226;8.108;2022-07-10T02:50:05;14.30;99.90
4520;DHT22;2272;49.226;8.108;2022-07-10T02:52:32;14.30;99.90
4520;DHT22;2272;49.226;8.108;2022-07-10T02:54:58;14.20;99.90
4520;DHT22;2272;49.226;8.108;2022-07-10T02:57:25;14.20;99.90
4520;DHT22;2272;49.226;8.108;2022-07-10T02:59:53;14.10;99.90
4520;DHT22;2272;49.226;8.108;2022-07-10T03:02:21;14.00;99.90
4520;DHT22;2272;49.226;8.108;2022-07-10T03:04:48;14.00;99.90
4520;DHT22;2272;49.226;8.108;2022-07-10T03:07:15;13.90;99.90
4520;DHT22;2272;49.226;8.108;2022-07-10T03:09:41;13.90;99.90
4520;DHT22;2272;49.226;8.108;2022-07-10T03:12:08;13.90;99.90
4520;DHT22;2272;49.226;8.108;2022-07-10T03:14:35;13.80;99.90
4520;DHT22;2272;49.226;8.108;2022-07-10T03:17:01;13.80;99.90
4520;DHT22;2272;49.226;8.108;2022-07-10T03:19:30;13.80;99.90
4520;DHT22;2272;49.226;8.108;2022-07-10T03:21:56;13.70;99.90
4520;DHT22;2272;49.226;8.108;2022-07-10T03:24:23;13.70;99.90
4520;DHT22;2272;49.226;8.108;2022-07-10T03:26:50;13.60;99.90
4520;DHT22;2272;49.226;8.108;2022-07-10T03:29:16;13.60;99.90
4520;DHT22;2272;49.226;8.108;2022-07-10T03:31:43;13.60;99.90
4520;DHT22;2272;49.226;8.108;2022-07-10T03:34:10;13.60;99.90
4520;DHT22;2272;49.226;8.108;2022-07-10T03:36:38;13.60;99.90
4520;DHT22;2272;49.226;8.108;2022-07-10T03:39:05;13.60;99.90
4520;DHT22;2272;49.226;8.108;2022-07-10T03:41:32;13.50;99.90
4520;DHT22;2272;49.226;8.108;2022-07-10T03:43:58;13.50;99.90
4520;DHT22;2272;49.226;8.108;2022-07-10T03:46:25;13.50;99.90
4520;DHT22;2272;49.226;8.108;2022-07-10T03:48:52;13.50;99.90
4520;DHT22;2272;49.226;8.108;2022-07-10T03:51:19;13.50;99.90
4520;DHT22;2272;49.226;8.108;2022-07-10T03:53:47;13.50;99.90
4520;DHT22;2272;49.226;8.108;2022-07-10T03:56:14;13.50;99.90
4520;DHT22;2272;49.226;8.108;2022-07-10T03:59:01;13.50;99.90
4520;DHT22;2272;49.226;8.108;2022-07-10T04:01:26;13.50;99.90
4520;DHT22;2272;49.226;8.108;2022-07-10T04:03:53;13.60;99.90
4520;DHT22;2272;49.226;8.108;2022-07-10T04:06:20;13.60;99.90
4520;DHT22;2272;49.226;8.108;2022-07-10T04:08:48;13.50;99.90
4520;DHT22;2272;49.226;8.108;2022-07-10T04:11:14;13.60;99.90
4520;DHT22;2272;49.226;8.108;2022-07-10T04:13:41;13.60;99.90
4520;DHT22;2272;49.226;8.108;2022-07-10T04:16:08;13.50;99.90
4520;DHT22;2272;49.226;8.108;2022-07-10T04:18:38;13.60;99.90
4520;DHT22;2272;49.226;8.108;2022-07-10T04:21:05;13.60;99.90
4520;DHT22;2272;49.226;8.108;2022-07-10T04:23:32;13.70;99.90
4520;DHT22;2272;49.226;8.108;2022-07-10T04:26:00;13.70;99.90
4520;DHT22;2272;49.226;8.108;2022-07-10T04:28:27;13.80;99.90
4520;DHT22;2272;49.226;8.108;2022-07-10T04:30:54;13.80;99.90
4520;DHT22;2272;49.226;8.108;2022-07-10T04:33:21;13.90;99.90
4520;DHT22;2272;49.226;8.108;2022-07-10T04:35:47;14.00;99.90
4520;DHT22;2272;49.226;8.108;2022-07-10T04:38:14;14.10;99.90
4520;DHT22;2272;49.226;8.108;2022-07-10T04:40:41;14.10;99.90
4520;DHT22;2272;49.226;8.108;2022-07-10T04:43:09;14.20;99.90
4520;DHT22;2272;49.226;8.108;2022-07-10T04:45:36;14.30;99.90
4520;DHT22;2272;49.226;8.108;2022-07-10T04:48:04;14.40;99.90
4520;DHT22;2272;49.226;8.108;2022-07-10T04:50:31;14.40;99.90
4520;DHT22;2272;49.226;8.108;2022-07-10T04:52:58;14.50;99.90
4520;DHT22;2272;49.226;8.108;2022-07-10T04:55:25;14.60;99.90
4520;DHT22;2272;49.226;8.108;2022-07-10T04:57:52;14.70;99.90
4520;DHT22;2272;49.226;8.108;2022-07-10T05:00:21;14.70;99.90
4520;DHT22;2272;49.226;8.108;2022-07-10T05:02:47;14.80;99.90
4520;DHT22;2272;49.226;8.108;2022-07-10T05:05:14;14.80;99.90
4520;DHT22;2272;49.226;8.108;2022-07-10T05:07:41;14.90;99.90
4520;DHT22;2272;49.226;8.108;2022-07-10T05:10:08;15.00;99.90
4520;DHT22;2272;49.226;8.108;2022-07-10T05:12:35;15.00;99.90
4520;DHT22;2272;49.226;8.108;2022-07-10T05:15:02;15.10;99.90
4520;DHT22;2272;49.226;8.108;2022-07-10T05:17:30;15.20;99.90
4520;DHT22;2272;49.226;8.108;2022-07-10T05:19:57;15.20;99.90
4520;DHT22;2272;49.226;8.108;2022-07-10T05:22:24;15.40;99.90
4520;DHT22;2272;49.226;8.108;2022-07-10T05:24:51;15.50;99.90
4520;DHT22;2272;49.226;8.108;2022-07-10T05:27:18;15.50;99.90
4520;DHT22;2272;49.226;8.108;2022-07-10T05:29:45;15.50;99.90
4520;DHT22;2272;49.226;8.108;2022-07-10T05:32:13;15.80;99.90
4520;DHT22;2272;49.226;8.108;2022-07-10T05:34:41;16.50;99.90
4520;DHT22;2272;49.226;8.108;2022-07-10T05:37:08;17.00;99.90
4520;DHT22;2272;49.226;8.108;2022-07-10T05:39:35;16.80;99.90
4520;DHT22;2272;49.226;8.108;2022-07-10T05:42:02;16.50;99.90
4520;DHT22;2272;49.226;8.108;2022-07-10T05:44:29;16.60;99.90
4520;DHT22;2272;49.226;8.108;2022-07-10T05:46:55;16.90;99.90
4520;DHT22;2272;49.226;8.108;2022-07-10T05:49:22;17.20;99.90
4520;DHT22;2272;49.226;8.108;2022-07-10T05:51:50;17.30;99.90
4520;DHT22;2272;49.226;8.108;2022-07-10T05:54:17;17.60;99.90
4520;DHT22;2272;49.226;8.108;2022-07-10T05:56:44;17.60;99.90
4520;DHT22;2272;49.226;8.108;2022-07-10T05:59:11;17.70;99.90
4520;DHT22;2272;49.226;8.108;2022-07-10T06:01:38;18.00;99.90
4520;DHT22;2272;49.226;8.108;2022-07-10T06:04:04;18.00;99.90
4520;DHT22;2272;49.226;8.108;2022-07-10T06:06:31;18.10;99.90
4520;DHT22;2272;49.226;8.108;2022-07-10T06:08:59;17.90;99.90
4520;DHT22;2272;49.226;8.108;2022-07-10T06:11:26;17.60;99.90
4520;DHT22;2272;49.226;8.108;2022-07-10T06:13:53;17.70;99.90
4520;DHT22;2272;49.226;8.108;2022-07-10T06:16:19;17.80;99.90
4520;DHT22;2272;49.226;8.108;2022-07-10T06:18:46;17.90;99.90
4520;DHT22;2272;49.226;8.108;2022-07-10T06:21:13;17.70;99.90
4520;DHT22;2272;49.226;8.108;2022-07-10T06:23:40;17.50;99.90
4520;DHT22;2272;49.226;8.108;2022-07-10T06:26:08;17.70;99.90
4520;DHT22;2272;49.226;8.108;2022-07-10T06:28:35;17.80;99.90
4520;DHT22;2272;49.226;8.108;2022-07-10T06:31:02;17.70;99.90
4520;DHT22;2272;49.226;8.108;2022-07-10T06:33:28;17.60;99.90
4520;DHT22;2272;49.226;8.108;2022-07-10T06:35:55;17.50;99.90
4520;DHT22;2272;49.226;8.108;2022-07-10T06:38:22;17.40;99.90
4520;DHT22;2272;49.226;8.108;2022-07-10T06:40:49;17.20;99.90
4520;DHT22;2272;49.226;8.108;2022-07-10T06:43:17;17.10;99.90
4520;DHT22;2272;49.226;8.108;2022-07-10T06:45:44;17.00;99.90
4520;DHT22;2272;49.226;8.108;2022-07-10T06:48:11;16.80;99.90
4520;DHT22;2272;49.226;8.108;2022-07-10T06:50:37;16.70;99.90
4520;DHT22;2272;49.226;8.108;2022-07-10T06:53:04;16.60;99.90
4520;DHT22;2272;49.226;8.108;2022-07-10T06:55:32;16.60;99.90
4520;DHT22;2272;49.226;8.108;2022-07-10T06:57:59;16.50;99.90
4520;DHT22;2272;49.226;8.108;2022-07-10T07:00:27;16.40;99.90
4520;DHT22;2272;49.226;8.108;2022-07-10T07:02:54;16.40;99.90
4520;DHT22;2272;49.226;8.108;2022-07-10T07:05:21;16.30;99.90
4520;DHT22;2272;49.226;8.108;2022-07-10T07:07:48;16.40;99.90
4520;DHT22;2272;49.226;8.108;2022-07-10T07:10:14;16.40;99.90
4520;DHT22;2272;49.226;8.108;2022-07-10T07:12:41;16.50;99.90
4520;DHT22;2272;49.226;8.108;2022-07-10T07:15:08;16.60;99.90
4520;DHT22;2272;49.226;8.108;2022-07-10T07:17:40;16.50;99.90
4520;DHT22;2272;49.226;8.108;2022-07-10T07:20:21;16.60;99.90
4520;DHT22;2272;49.226;8.108;2022-07-10T07:23:05;16.60;99.90
4520;DHT22;2272;49.226;8.108;2022-07-10T07:25:38;16.80;99.90
4520;DHT22;2272;49.226;8.108;2022-07-10T07:28:07;16.80;99.50
4520;DHT22;2272;49.226;8.108;2022-07-10T07:30:34;16.80;99.90
4520;DHT22;2272;49.226;8.108;2022-07-10T07:33:02;16.80;99.90
4520;DHT22;2272;49.226;8.108;2022-07-10T07:35:29;16.90;99.90
4520;DHT22;2272;49.226;8.108;2022-07-10T07:37:56;17.00;99.90
4520;DHT22;2272;49.226;8.108;2022-07-10T07:40:23;17.00;99.60
4520;DHT22;2272;49.226;8.108;2022-07-10T07:42:50;17.10;99.80
4520;DHT22;2272;49.226;8.108;2022-07-10T07:45:19;17.20;99.10
4520;DHT22;2272;49.226;8.108;2022-07-10T07:47:48;17.20;99.00
4520;DHT22;2272;49.226;8.108;2022-07-10T07:50:18;17.20;98.70
4520;DHT22;2272;49.226;8.108;2022-07-10T07:52:45;17.40;98.80
4520;DHT22;2272;49.226;8.108;2022-07-10T07:55:13;17.50;97.90
4520;DHT22;2272;49.226;8.108;2022-07-10T07:57:41;17.70;98.50
4520;DHT22;2272;49.226;8.108;2022-07-10T08:00:09;17.80;97.00
4520;DHT22;2272;49.226;8.108;2022-07-10T08:02:37;17.90;97.20
4520;DHT22;2272;49.226;8.108;2022-07-10T08:05:05;18.00;96.90
4520;DHT22;2272;49.226;8.108;2022-07-10T08:07:35;18.20;97.30
4520;DHT22;2272;49.226;8.108;2022-07-10T08:10:03;18.50;96.40
4520;DHT22;2272;49.226;8.108;2022-07-10T08:12:30;18.80;96.70
4520;DHT22;2272;49.226;8.108;2022-07-10T08:14:57;19.00;95.30
4520;DHT22;2272;49.226;8.108;2022-07-10T08:17:24;19.10;95.30
4520;DHT22;2272;49.226;8.108;2022-07-10T08:19:51;19.30;94.40
4520;DHT22;2272;49.226;8.108;2022-07-10T08:22:18;19.60;94.70
4520;DHT22;2272;49.226;8.108;2022-07-10T08:24:46;20.10;94.20
4520;DHT22;2272;49.226;8.108;2022-07-10T08:27:13;20.00;94.20
4520;DHT22;2272;49.226;8.108;2022-07-10T08:29:40;19.60;93.50
4520;DHT22;2272;49.226;8.108;2022-07-10T08:32:07;19.20;94.10
4520;DHT22;2272;49.226;8.108;2022-07-10T08:34:35;18.80;94.80
4520;DHT22;2272;49.226;8.108;2022-07-10T08:37:01;18.70;94.90
4520;DHT22;2272;49.226;8.108;2022-07-10T08:39:28;18.70;94.90
4520;DHT22;2272;49.226;8.108;2022-07-10T08:41:57;18.60;94.20
4520;DHT22;2272;49.226;8.108;2022-07-10T08:44:23;18.60;93.70
4520;DHT22;2272;49.226;8.108;2022-07-10T08:46:50;18.50;94.20
4520;DHT22;2272;49.226;8.108;2022-07-10T08:49:17;18.20;94.50
4520;DHT22;2272;49.226;8.108;2022-07-10T08:51:54;18.00;94.40
4520;DHT22;2272;49.226;8.108;2022-07-10T08:54:23;18.10;95.30
4520;DHT22;2272;49.226;8.108;2022-07-10T08:56:52;18.30;95.00
4520;DHT22;2272;49.226;8.108;2022-07-10T08:59:22;18.60;94.40
4520;DHT22;2272;49.226;8.108;2022-07-10T09:01:49;18.90;93.20
4520;DHT22;2272;49.226;8.108;2022-07-10T09:04:16;18.90;93.40
4520;DHT22;2272;49.226;8.108;2022-07-10T09:06:44;19.20;93.30
4520;DHT22;2272;49.226;8.108;2022-07-10T09:09:11;19.50;92.70
4520;DHT22;2272;49.226;8.108;2022-07-10T09:11:38;19.80;92.20
4520;DHT22;2272;49.226;8.108;2022-07-10T09:14:08;19.80;92.00
4520;DHT22;2272;49.226;8.108;2022-07-10T09:16:39;19.70;91.30
4520;DHT22;2272;49.226;8.108;2022-07-10T09:19:17;19.60;91.80
4520;DHT22;2272;49.226;8.108;2022-07-10T09:21:45;19.50;90.90
4520;DHT22;2272;49.226;8.108;2022-07-10T09:24:12;19.50;90.90
4520;DHT22;2272;49.226;8.108;2022-07-10T09:26:40;19.60;90.90
4520;DHT22;2272;49.226;8.108;2022-07-10T09:29:09;19.90;90.40
4520;DHT22;2272;49.226;8.108;2022-07-10T09:31:50;20.10;90.00
4520;DHT22;2272;49.226;8.108;2022-07-10T09:34:18;20.20;90.10
4520;DHT22;2272;49.226;8.108;2022-07-10T09:37:20;20.30;89.50
4520;DHT22;2272;49.226;8.108;2022-07-10T09:39:57;20.30;90.10
4520;DHT22;2272;49.226;8.108;2022-07-10T09:42:25;20.20;87.90
4520;DHT22;2272;49.226;8.108;2022-07-10T09:44:52;20.00;88.80
4520;DHT22;2272;49.226;8.108;2022-07-10T09:47:23;20.00;87.60
4520;DHT22;2272;49.226;8.108;2022-07-10T09:49:50;20.10;90.10
4520;DHT22;2272;49.226;8.108;2022-07-10T09:52:18;19.90;88.20
4520;DHT22;2272;49.226;8.108;2022-07-10T09:54:45;19.50;89.30
4520;DHT22;2272;49.226;8.108;2022-07-10T09:57:13;19.50;89.60
4520;DHT22;2272;49.226;8.108;2022-07-10T09:59:42;19.80;88.70
4520;DHT22;2272;49.226;8.108;2022-07-10T10:02:11;20.10;87.50
4520;DHT22;2272;49.226;8.108;2022-07-10T10:04:41;20.40;86.70
4520;DHT22;2272;49.226;8.108;2022-07-10T10:07:11;20.60;85.70
4520;DHT22;2272;49.226;8.108;2022-07-10T10:09:41;20.80;84.80
4520;DHT22;2272;49.226;8.108;2022-07-10T10:12:16;20.80;84.90
4520;DHT22;2272;49.226;8.108;2022-07-10T10:14:43;20.80;84.90
4520;DHT22;2272;49.226;8.108;2022-07-10T10:17:10;20.90;83.50
4520;DHT22;2272;49.226;8.108;2022-07-10T10:19:39;21.10;83.20
4520;DHT22;2272;49.226;8.108;2022-07-10T10:22:24;21.20;85.10
4520;DHT22;2272;49.226;8.108;2022-07-10T10:24:52;21.30;84.60
4520;DHT22;2272;49.226;8.108;2022-07-10T10:27:20;21.40;83.70
4520;DHT22;2272;49.226;8.108;2022-07-10T10:29:48;21.50;83.20
4520;DHT22;2272;49.226;8.108;2022-07-10T10:32:17;21.70;81.50
4520;DHT22;2272;49.226;8.108;2022-07-10T10:34:46;22.00;81.90
4520;DHT22;2272;49.226;8.108;2022-07-10T10:37:34;22.10;79.90
4520;DHT22;2272;49.226;8.108;2022-07-10T10:40:03;22.40;80.90
4520;DHT22;2272;49.226;8.108;2022-07-10T10:42:35;23.00;80.30
4520;DHT22;2272;49.226;8.108;2022-07-10T10:45:22;23.50;77.40
4520;DHT22;2272;49.226;8.108;2022-07-10T10:47:59;23.20;77.00
4520;DHT22;2272;49.226;8.108;2022-07-10T10:50:38;23.00;78.70
4520;DHT22;2272;49.226;8.108;2022-07-10T10:53:12;23.00;77.80
4520;DHT22;2272;49.226;8.108;2022-07-10T10:55:39;23.10;77.80
4520;DHT22;2272;49.226;8.108;2022-07-10T10:58:15;23.20;78.40
4520;DHT22;2272;49.226;8.108;2022-07-10T11:00:43;23.40;76.60
4520;DHT22;2272;49.226;8.108;2022-07-10T11:03:17;23.30;76.10
4520;DHT22;2272;49.226;8.108;2022-07-10T11:05:47;23.20;75.40
4520;DHT22;2272;49.226;8.108;2022-07-10T11:08:35;23.10;76.50
4520;DHT22;2272;49.226;8.108;2022-07-10T11:11:37;22.90;77.20
4520;DHT22;2272;49.226;8.108;2022-07-10T11:14:06;23.20;77.70
4520;DHT22;2272;49.226;8.108;2022-07-10T11:16:33;23.70;76.50
4520;DHT22;2272;49.226;8.108;2022-07-10T11:19:01;23.50;74.30
4520;DHT22;2272;49.226;8.108;2022-07-10T11:21:46;23.20;75.30
4520;DHT22;2272;49.226;8.108;2022-07-10T11:24:25;23.20;77.60
4520;DHT22;2272;49.226;8.108;2022-07-10T11:27:06;23.40;75.70
4520;DHT22;2272;49.226;8.108;2022-07-10T11:29:36;23.80;75.00
4520;DHT22;2272;49.226;8.108;2022-07-10T11:32:05;24.20;74.60
4520;DHT22;2272;49.226;8.108;2022-07-10T11:34:36;24.40;72.70
4520;DHT22;2272;49.226;8.108;2022-07-10T11:37:13;24.30;71.00
4520;DHT22;2272;49.226;8.108;2022-07-10T11:39:40;24.00;71.90
4520;DHT22;2272;49.226;8.108;2022-07-10T11:42:07;24.10;73.50
4520;DHT22;2272;49.226;8.108;2022-07-10T11:44:34;24.70;73.20
4520;DHT22;2272;49.226;8.108;2022-07-10T11:47:01;25.30;69.20
4520;DHT22;2272;49.226;8.108;2022-07-10T11:49:28;25.30;70.00
4520;DHT22;2272;49.226;8.108;2022-07-10T11:52:01;25.60;70.00
4520;DHT22;2272;49.226;8.108;2022-07-10T11:54:29;25.50;67.90
4520;DHT22;2272;49.226;8.108;2022-07-10T11:56:56;25.00;68.60
4520;DHT22;2272;49.226;8.108;2022-07-10T11:59:24;24.80;70.90
4520;DHT22;2272;49.226;8.108;2022-07-10T12:01:52;24.90;69.00
4520;DHT22;2272;49.226;8.108;2022-07-10T12:04:21;24.60;68.20
4520;DHT22;2272;49.226;8.108;2022-07-10T12:06:50;24.30;70.10
4520;DHT22;2272;49.226;8.108;2022-07-10T12:09:18;24.20;70.30
4520;DHT22;2272;49.226;8.108;2022-07-10T12:11:58;24.60;70.10
4520;DHT22;2272;49.226;8.108;2022-07-10T12:14:26;25.00;68.30
4520;DHT22;2272;49.226;8.108;2022-07-10T12:16:53;25.10;69.60
4520;DHT22;2272;49.226;8.108;2022-07-10T12:19:22;25.10;69.50
4520;DHT22;2272;49.226;8.108;2022-07-10T12:21:50;25.10;70.90
4520;DHT22;2272;49.226;8.108;2022-07-10T12:24:18;24.90;68.40
4520;DHT22;2272;49.226;8.108;2022-07-10T12:26:46;24.40;70.70
4520;DHT22;2272;49.226;8.108;2022-07-10T12:29:20;24.20;69.50
4520;DHT22;2272;49.226;8.108;2022-07-10T12:31:49;24.10;70.20
4520;DHT22;2272;49.226;8.108;2022-07-10T12:34:16;24.10;70.70
4520;DHT22;2272;49.226;8.108;2022-07-10T12:36:45;24.50;71.60
4520;DHT22;2272;49.226;8.108;2022-07-10T12:39:12;25.10;70.20
4520;DHT22;2272;49.226;8.108;2022-07-10T12:41:56;25.50;67.50
4520;DHT22;2272;49.226;8.108;2022-07-10T12:44:32;25.40;68.50
4520;DHT22;2272;49.226;8.108;2022-07-10T12:47:04;25.10;67.80
4520;DHT22;2272;49.226;8.108;2022-07-10T12:49:48;25.20;70.10
4520;DHT22;2272;49.226;8.108;2022-07-10T12:52:20;25.50;68.70
4520;DHT22;2272;49.226;8.108;2022-07-10T12:54:47;25.50;67.60
4520;DHT22;2272;49.226;8.108;2022-07-10T12:57:14;25.40;67.50
4520;DHT22;2272;49.226;8.108;2022-07-10T12:59:42;25.30;67.00
4520;DHT22;2272;49.226;8.108;2022-07-10T13:02:19;25.40;68.40
4520;DHT22;2272;49.226;8.108;2022-07-10T13:04:53;25.40;67.80
4520;DHT22;2272;49.226;8.108;2022-07-10T13:07:20;25.30;68.10
4520;DHT22;2272;49.226;8.108;2022-07-10T13:09:54;24.80;68.90
4520;DHT22;2272;49.226;8.108;2022-07-10T13:12:21;25.00;68.90
4520;DHT22;2272;49.226;8.108;2022-07-10T13:14:50;25.30;68.50
4520;DHT22;2272;49.226;8.108;2022-07-10T13:17:17;25.20;68.50
4520;DHT22;2272;49.226;8.108;2022-07-10T13:19:43;25.50;68.60
4520;DHT22;2272;49.226;8.108;2022-07-10T13:22:10;25.70;66.30
4520;DHT22;2272;49.226;8.108;2022-07-10T13:24:37;25.90;67.00
4520;DHT22;2272;49.226;8.108;2022-07-10T13:27:05;25.90;66.70
4520;DHT22;2272;49.226;8.108;2022-07-10T13:29:32;25.90;67.10
4520;DHT22;2272;49.226;8.108;2022-07-10T13:32:00;25.70;67.30
4520;DHT22;2272;49.226;8.108;2022-07-10T13:34:28;25.90;68.20
4520;DHT22;2272;49.226;8.108;2022-07-10T13:36:55;25.90;67.10
4520;DHT22;2272;49.226;8.108;2022-07-10T13:39:22;25.80;67.30
4520;DHT22;2272;49.226;8.108;2022-07-10T13:41:49;25.90;68.00
4520;DHT22;2272;49.226;8.108;2022-07-10T13:44:16;26.30;67.00
4520;DHT22;2272;49.226;8.108;2022-07-10T13:46:43;26.50;66.10
4520;DHT22;2272;49.226;8.108;2022-07-10T13:49:11;26.30;67.00
4520;DHT22;2272;49.226;8.108;2022-07-10T13:51:38;26.10;67.30
4520;DHT22;2272;49.226;8.108;2022-07-10T13:54:05;25.90;68.30
4520;DHT22;2272;49.226;8.108;2022-07-10T13:56:31;25.70;68.60
4520;DHT22;2272;49.226;8.108;2022-07-10T13:58:58;25.30;69.20
4520;DHT22;2272;49.226;8.108;2022-07-10T14:01:25;25.40;69.20
4520;DHT22;2272;49.226;8.108;2022-07-10T14:03:52;25.40;68.20
4520;DHT22;2272;49.226;8.108;2022-07-10T14:06:20;25.50;67.80
4520;DHT22;2272;49.226;8.108;2022-07-10T14:08:47;25.50;69.00
4520;DHT22;2272;49.226;8.108;2022-07-10T14:11:14;25.90;69.50
4520;DHT22;2272;49.226;8.108;2022-07-10T14:13:43;26.60;68.90
4520;DHT22;2272;49.226;8.108;2022-07-10T14:16:10;27.20;67.30
4520;DHT22;2272;49.226;8.108;2022-07-10T14:18:36;26.90;66.50
4520;DHT22;2272;49.226;8.108;2022-07-10T14:21:05;26.50;67.40
4520;DHT22;2272;49.226;8.108;2022-07-10T14:23:36;26.20;67.20
4520;DHT22;2272;49.226;8.108;2022-07-10T14:26:04;25.80;68.60
4520;DHT22;2272;49.226;8.108;2022-07-10T14:28:31;25.30;68.10
4520;DHT22;2272;49.226;8.108;2022-07-10T14:31:00;24.80;68.90
4520;DHT22;2272;49.226;8.108;2022-07-10T14:33:29;24.60;69.60
4520;DHT22;2272;49.226;8.108;2022-07-10T14:35:56;24.60;69.80
4520;DHT22;2272;49.226;8.108;2022-07-10T14:38:23;24.70;70.40
4520;DHT22;2272;49.226;8.108;2022-07-10T14:40:51;24.60;69.30
4520;DHT22;2272;49.226;8.108;2022-07-10T14:43:18;24.40;70.20
4520;DHT22;2272;49.226;8.108;2022-07-10T14:45:45;24.40;71.00
4520;DHT22;2272;49.226;8.108;2022-07-10T14:48:12;24.60;70.60
4520;DHT22;2272;49.226;8.108;2022-07-10T14:50:39;24.70;70.80
4520;DHT22;2272;49.226;8.108;2022-07-10T14:53:06;24.60;71.60
4520;DHT22;2272;49.226;8.108;2022-07-10T14:55:34;24.30;72.20
4520;DHT22;2272;49.226;8.108;2022-07-10T14:58:02;24.10;72.20
4520;DHT22;2272;49.226;8.108;2022-07-10T15:00:29;23.90;72.90
4520;DHT22;2272;49.226;8.108;2022-07-10T15:02:56;23.80;73.50
4520;DHT22;2272;49.226;8.108;2022-07-10T15:05:22;23.80;73.90
4520;DHT22;2272;49.226;8.108;2022-07-10T15:07:49;23.70;73.70
4520;DHT22;2272;49.226;8.108;2022-07-10T15:10:16;23.70;73.60
4520;DHT22;2272;49.226;8.108;2022-07-10T15:12:44;23.50;74.30
4520;DHT22;2272;49.226;8.108;2022-07-10T15:15:12;23.30;74.60
4520;DHT22;2272;49.226;8.108;2022-07-10T15:17:39;23.30;74.60
4520;DHT22;2272;49.226;8.108;2022-07-10T15:20:07;23.20;75.20
4520;DHT22;2272;49.226;8.108;2022-07-10T15:22:34;23.20;75.60
4520;DHT22;2272;49.226;8.108;2022-07-10T15:25:00;23.10;75.50
4520;DHT22;2272;49.226;8.108;2022-07-10T15:27:27;23.10;76.10
4520;DHT22;2272;49.226;8.108;2022-07-10T15:29:54;23.00;76.40
4520;DHT22;2272;49.226;8.108;2022-07-10T15:32:22;23.10;77.00
4520;DHT22;2272;49.226;8.108;2022-07-10T15:34:49;23.30;75.70
4520;DHT22;2272;49.226;8.108;2022-07-10T15:37:16;23.30;76.20
4520;DHT22;2272;49.226;8.108;2022-07-10T15:39:43;23.30;76.70
4520;DHT22;2272;49.226;8.108;2022-07-10T15:42:10;23.30;76.40
4520;DHT22;2272;49.226;8.108;2022-07-10T15:44:37;23.30;76.60
4520;DHT22;2272;49.226;8.108;2022-07-10T15:47:05;23.10;76.60
4520;DHT22;2272;49.226;8.108;2022-07-10T15:49:33;22.80;76.80
4520;DHT22;2272;49.226;8.108;2022-07-10T15:52:00;22.70;77.30
4520;DHT22;2272;49.226;8.108;2022-07-10T15:54:27;22.90;77.30
4520;DHT22;2272;49.226;8.108;2022-07-10T15:56:54;23.20;77.20
4520;DHT22;2272;49.226;8.108;2022-07-10T15:59:22;23.30;76.30
4520;DHT22;2272;49.226;8.108;2022-07-10T16:01:50;23.20;76.70
4520;DHT22;2272;49.226;8.108;2022-07-10T16:04:17;23.10;77.90
4520;DHT22;2272;49.226;8.108;2022-07-10T16:06:45;23.10;77.50
4520;DHT22;2272;49.226;8.108;2022-07-10T16:09:12;22.90;77.80